Time;durP1;ratioP1;P1;durP2;ratioP2;P2;SDS_P1;SDS_P2;PMS_P1;PMS_P2;Temp;Humidity;BMP_temperature;BMP_pressure;BME280_temperature;BME280_humidity;BME280_pressure;Samples;Min_cycle;Max_cycle;Signal;HPM_P1;HPM_P2
2021/01/13 00:00:18;;;;;;;12.98;6.00;;;3.20;99.90;;;;;;5033626;28;20287;-85
2021/01/13 00:02:45;;;;;;;9.27;6.72;;;3.20;99.90;;;;;;5033582;28;20294;-85
2021/01/13 00:05:13;;;;;;;16.88;7.72;;;3.20;99.90;;;;;;5036318;28;20265;-84
2021/01/13 00:07:40;;;;;;;14.60;7.82;;;3.30;99.90;;;;;;5036620;28;20262;-84
2021/01/13 00:10:08;;;;;;;10.35;6.25;;;3.30;99.90;;;;;;5019301;28;20250;-83
2021/01/13 00:12:35;;;;;;;18.48;7.05;;;3.40;99.90;;;;;;5016477;28;20248;-84
2021/01/13 00:15:02;;;;;;;13.90;7.18;;;3.40;99.90;;;;;;5032950;28;20203;-85
2021/01/13 00:17:28;;;;;;;14.80;7.78;;;3.60;99.90;;;;;;5019852;28;20760;-84
2021/01/13 00:19:56;;;;;;;10.95;6.68;;;3.60;99.90;;;;;;5020157;28;20208;-84
2021/01/13 00:22:24;;;;;;;14.27;7.00;;;3.70;99.90;;;;;;5034438;28;20223;-84
2021/01/13 00:24:51;;;;;;;12.13;6.78;;;3.40;99.90;;;;;;5033837;28;20218;-85
2021/01/13 00:27:21;;;;;;;14.18;7.85;;;3.60;99.90;;;;;;5035672;28;20270;-84
2021/01/13 00:29:48;;;;;;;10.82;6.70;;;3.40;99.90;;;;;;5027194;28;20195;-85
2021/01/13 00:32:14;;;;;;;10.30;6.63;;;3.60;99.90;;;;;;5032699;28;20230;-85
2021/01/13 00:34:41;;;;;;;11.25;6.40;;;3.40;99.90;;;;;;5034005;28;20211;-84
2021/01/13 00:37:09;;;;;;;14.07;7.20;;;3.50;99.90;;;;;;5031632;28;20524;-85
2021/01/13 00:39:35;;;;;;;12.65;7.53;;;3.70;99.90;;;;;;5012442;28;20211;-84
2021/01/13 00:42:02;;;;;;;16.40;7.00;;;3.80;99.90;;;;;;5013365;28;20250;-85
2021/01/13 00:44:29;;;;;;;11.73;7.25;;;3.80;99.90;;;;;;5034169;28;20246;-84
2021/01/13 00:46:55;;;;;;;9.90;7.00;;;3.70;99.90;;;;;;5025623;28;20230;-85
2021/01/13 00:49:22;;;;;;;9.40;6.05;;;3.80;99.90;;;;;;5014684;28;20219;-86
2021/01/13 00:51:49;;;;;;;10.27;7.15;;;3.70;99.90;;;;;;5029959;28;20203;-85
2021/01/13 00:54:16;;;;;;;10.93;6.60;;;3.70;99.90;;;;;;5030714;28;20204;-86
2021/01/13 00:56:44;;;;;;;12.32;8.90;;;3.80;99.90;;;;;;5026278;28;20204;-85
2021/01/13 00:59:11;;;;;;;12.63;6.70;;;3.90;99.90;;;;;;5032937;28;20214;-85
2021/01/13 01:01:38;;;;;;;9.25;6.13;;;4.00;99.90;;;;;;5032524;28;20718;-85
2021/01/13 01:04:05;;;;;;;11.32;7.18;;;4.00;99.90;;;;;;5033063;28;20277;-85
2021/01/13 01:06:32;;;;;;;9.95;6.25;;;4.20;99.90;;;;;;5021548;28;20220;-85
2021/01/13 01:08:59;;;;;;;12.32;6.63;;;4.10;99.90;;;;;;5027399;28;20196;-85
2021/01/13 01:11:31;;;;;;;11.65;7.63;;;4.20;99.90;;;;;;5041327;28;20234;-84
2021/01/13 01:13:58;;;;;;;9.63;6.95;;;4.20;99.90;;;;;;5038255;28;20455;-85
2021/01/13 01:16:29;;;;;;;11.43;6.60;;;4.10;99.90;;;;;;5049218;28;20199;-85
2021/01/13 01:18:56;;;;;;;15.25;6.88;;;4.20;99.90;;;;;;5051161;28;20195;-84
2021/01/13 01:21:23;;;;;;;12.52;6.65;;;4.10;99.90;;;;;;5034504;28;20199;-84
2021/01/13 01:23:49;;;;;;;9.18;6.40;;;4.20;99.90;;;;;;5050076;28;20231;-86
2021/01/13 01:26:16;;;;;;;10.75;6.32;;;4.10;99.90;;;;;;5052436;28;20195;-86
2021/01/13 01:28:43;;;;;;;10.52;6.57;;;4.20;99.90;;;;;;5052388;28;20263;-85
2021/01/13 01:31:10;;;;;;;10.10;6.38;;;3.90;99.90;;;;;;5044547;28;20207;-85
2021/01/13 01:33:36;;;;;;;10.45;6.10;;;4.10;99.90;;;;;;5034039;28;20223;-85
2021/01/13 01:36:03;;;;;;;9.52;6.10;;;4.10;99.90;;;;;;5028544;28;20207;-85
2021/01/13 01:38:29;;;;;;;9.75;5.97;;;4.30;99.90;;;;;;5018536;28;20204;-85
2021/01/13 01:41:03;;;;;;;11.02;6.80;;;4.10;99.90;;;;;;5028961;28;20211;-86
2021/01/13 01:43:30;;;;;;;8.35;5.57;;;4.20;99.90;;;;;;5012489;28;20247;-85
2021/01/13 01:45:58;;;;;;;22.50;11.52;;;4.00;99.90;;;;;;5033746;28;20217;-85
2021/01/13 01:48:29;;;;;;;10.15;6.53;;;4.20;99.90;;;;;;5029435;28;20223;-85
2021/01/13 01:51:00;;;;;;;12.10;8.00;;;3.90;99.90;;;;;;5030189;28;20222;-85
2021/01/13 01:53:41;;;;;;;11.90;6.03;;;4.00;99.90;;;;;;5030160;28;20227;-85
2021/01/13 01:56:17;;;;;;;9.00;6.32;;;4.10;99.90;;;;;;5044730;28;20207;-85
2021/01/13 01:58:48;;;;;;;9.55;5.82;;;4.10;99.90;;;;;;5033920;28;20195;-85
2021/01/13 02:01:18;;;;;;;9.43;5.97;;;4.00;99.90;;;;;;5035833;28;20261;-85
2021/01/13 02:03:48;;;;;;;9.15;6.05;;;4.30;99.90;;;;;;5021392;28;20785;-85
2021/01/13 02:06:16;;;;;;;22.63;11.57;;;4.10;99.90;;;;;;5025999;28;20230;-85
2021/01/13 02:08:44;;;;;;;14.00;6.10;;;4.30;99.90;;;;;;5034722;28;20204;-85
2021/01/13 02:11:16;;;;;;;8.70;5.88;;;4.40;99.90;;;;;;5025016;28;20218;-85
2021/01/13 02:13:43;;;;;;;9.15;5.50;;;4.20;99.90;;;;;;5023749;28;20243;-84
2021/01/13 02:16:12;;;;;;;9.10;5.85;;;4.30;99.90;;;;;;5033686;28;20207;-85
2021/01/13 02:18:42;;;;;;;9.38;5.13;;;4.20;99.90;;;;;;5032978;28;20204;-85
2021/01/13 02:21:13;;;;;;;9.43;6.35;;;4.40;99.90;;;;;;5033732;28;20282;-84
2021/01/13 02:23:46;;;;;;;12.20;6.63;;;4.40;99.90;;;;;;5029456;28;20529;-85
2021/01/13 02:26:51;;;;;;;11.35;6.82;;;4.20;99.90;;;;;;5021046;28;20200;-85
2021/01/13 02:29:32;;;;;;;7.88;4.85;;;4.30;99.90;;;;;;5014634;28;20311;-85
2021/01/13 02:32:11;;;;;;;10.18;5.53;;;4.30;99.90;;;;;;5035022;28;20230;-86
2021/01/13 02:34:58;;;;;;;10.70;5.00;;;4.20;99.90;;;;;;5026420;28;20555;-84
2021/01/13 02:37:43;;;;;;;11.40;4.80;;;4.40;99.90;;;;;;5016255;28;20222;-85
2021/01/13 02:40:15;;;;;;;5.82;4.18;;;4.20;99.90;;;;;;5029689;28;20406;-86
2021/01/13 02:42:57;;;;;;;8.27;4.45;;;4.30;99.90;;;;;;5033887;28;20258;-85
2021/01/13 02:45:27;;;;;;;8.57;4.43;;;4.10;99.90;;;;;;5034315;28;20222;-85
2021/01/13 02:48:15;;;;;;;9.48;4.68;;;4.20;99.90;;;;;;5034001;28;20227;-85
2021/01/13 02:50:44;;;;;;;8.77;4.68;;;4.20;99.90;;;;;;5029264;28;20208;-84
2021/01/13 02:53:40;;;;;;;8.70;5.10;;;4.10;99.90;;;;;;5025274;28;20243;-85
2021/01/13 02:56:16;;;;;;;6.88;3.92;;;4.10;99.90;;;;;;5014959;28;20216;-85
2021/01/13 02:58:42;;;;;;;8.00;4.20;;;4.30;99.90;;;;;;5014068;28;20212;-85
2021/01/13 03:01:10;;;;;;;8.23;4.53;;;4.20;99.90;;;;;;5022415;28;20227;-85
2021/01/13 03:03:37;;;;;;;12.43;4.25;;;4.20;99.90;;;;;;5014473;28;20224;-85
2021/01/13 03:06:06;;;;;;;7.32;4.32;;;4.00;99.90;;;;;;5023266;28;20253;-85
2021/01/13 03:08:51;;;;;;;8.57;4.35;;;4.20;99.90;;;;;;5033829;28;20265;-85
2021/01/13 03:11:20;;;;;;;7.90;4.10;;;4.30;99.90;;;;;;5034169;28;20207;-84
2021/01/13 03:13:46;;;;;;;7.90;3.63;;;4.20;99.90;;;;;;5032719;28;20570;-85
2021/01/13 03:16:16;;;;;;;6.43;3.85;;;4.30;99.90;;;;;;5032400;28;20203;-85
2021/01/13 03:18:56;;;;;;;7.18;4.32;;;4.10;99.90;;;;;;5018002;28;20204;-84
2021/01/13 03:21:31;;;;;;;7.28;4.00;;;4.10;99.90;;;;;;5030207;28;20267;-85
2021/01/13 03:24:07;;;;;;;9.75;4.93;;;4.30;99.90;;;;;;5029956;28;20321;-85
2021/01/13 03:26:38;;;;;;;6.88;3.50;;;4.30;99.90;;;;;;5030442;28;20265;-85
2021/01/13 03:29:07;;;;;;;7.53;4.20;;;4.00;99.90;;;;;;5036809;28;20218;-84
2021/01/13 03:31:53;;;;;;;8.30;4.20;;;4.20;99.90;;;;;;5042758;22;20245;-83
2021/01/13 03:34:27;;;;;;;9.07;4.30;;;4.20;99.90;;;;;;5030155;28;20226;-84
2021/01/13 03:37:01;;;;;;;6.72;3.60;;;4.00;99.90;;;;;;5037695;28;20270;-85
2021/01/13 03:39:34;;;;;;;5.75;3.50;;;4.20;99.90;;;;;;5037497;28;20203;-84
2021/01/13 03:42:14;;;;;;;7.38;4.15;;;4.10;99.90;;;;;;5038791;28;20238;-83
2021/01/13 03:44:43;;;;;;;6.80;3.90;;;4.00;99.90;;;;;;5038389;28;20206;-84
2021/01/13 03:48:03;;;;;;;6.38;3.90;;;4.10;99.90;;;;;;5038241;28;20222;-83
2021/01/13 03:50:35;;;;;;;10.45;4.47;;;4.10;99.90;;;;;;5045802;28;20273;-79
2021/01/13 03:53:05;;;;;;;5.80;3.65;;;4.10;99.90;;;;;;5050518;28;20771;-82
2021/01/13 03:55:33;;;;;;;7.22;3.70;;;4.00;99.90;;;;;;5041928;28;20243;-81
2021/01/13 03:58:15;;;;;;;6.68;3.55;;;4.20;99.90;;;;;;5039107;28;20225;-82
2021/01/13 04:00:51;;;;;;;10.00;4.47;;;4.00;99.90;;;;;;5039582;28;20191;-82
2021/01/13 04:03:26;;;;;;;9.68;3.90;;;4.10;99.90;;;;;;5037979;28;20313;-82
2021/01/13 04:06:07;;;;;;;5.68;3.17;;;4.00;99.90;;;;;;5038845;28;20195;-83
2021/01/13 04:08:39;;;;;;;7.18;3.63;;;4.00;99.90;;;;;;5038268;28;20210;-82
2021/01/13 04:11:08;;;;;;;9.25;4.00;;;4.00;99.90;;;;;;5037671;28;20233;-82
2021/01/13 04:13:40;;;;;;;6.72;3.10;;;4.00;99.90;;;;;;5038094;28;20291;-83
2021/01/13 04:16:08;;;;;;;5.53;3.17;;;3.90;99.90;;;;;;5038783;28;20249;-82
2021/01/13 04:18:37;;;;;;;9.60;3.45;;;4.10;99.90;;;;;;5043014;28;20218;-82
2021/01/13 04:21:04;;;;;;;11.98;3.60;;;4.10;99.90;;;;;;5051865;28;20215;-81
2021/01/13 04:23:32;;;;;;;7.03;3.33;;;3.90;99.90;;;;;;5036678;28;20205;-83
2021/01/13 04:25:59;;;;;;;11.13;3.50;;;3.80;99.90;;;;;;5018887;28;20204;-84
2021/01/13 04:28:27;;;;;;;7.28;3.55;;;3.70;99.90;;;;;;5031860;28;20374;-82
2021/01/13 04:30:55;;;;;;;5.95;3.10;;;3.80;99.90;;;;;;5046994;28;20206;-81
2021/01/13 04:33:22;;;;;;;9.48;4.00;;;3.80;99.90;;;;;;5056599;28;20239;-82
2021/01/13 04:35:52;;;;;;;7.43;3.85;;;4.00;99.90;;;;;;5054835;28;20196;-83
2021/01/13 04:38:22;;;;;;;6.85;3.80;;;3.90;99.90;;;;;;5046618;28;20203;-82
2021/01/13 04:41:07;;;;;;;11.43;4.32;;;4.00;99.90;;;;;;5045891;28;20214;-82
2021/01/13 04:43:50;;;;;;;6.90;3.50;;;3.90;99.90;;;;;;5045875;28;20210;-82
2021/01/13 04:46:30;;;;;;;8.93;3.45;;;4.00;99.90;;;;;;5045710;28;20626;-83
2021/01/13 04:49:08;;;;;;;4.72;2.80;;;3.70;99.90;;;;;;5043100;28;20202;-86
2021/01/13 04:51:38;;;;;;;9.82;3.35;;;3.60;99.90;;;;;;5037818;28;20357;-85
2021/01/13 04:54:13;;;;;;;12.18;4.10;;;3.90;99.90;;;;;;5038973;28;20195;-86
2021/01/13 04:57:07;;;;;;;7.25;3.80;;;3.80;99.90;;;;;;5038395;28;20195;-85
2021/01/13 05:00:06;;;;;;;10.63;3.50;;;3.80;99.90;;;;;;5038025;28;20700;-85
2021/01/13 05:03:16;;;;;;;9.18;4.22;;;3.60;99.90;;;;;;5037292;28;20273;-84
2021/01/13 05:05:50;;;;;;;6.30;3.63;;;3.60;99.90;;;;;;5017702;28;20667;-86
2021/01/13 05:08:27;;;;;;;7.75;3.78;;;3.60;99.90;;;;;;5024878;28;20222;-86
2021/01/13 05:11:08;;;;;;;10.32;3.75;;;3.50;99.90;;;;;;5036194;28;20203;-83
2021/01/13 05:13:35;;;;;;;8.55;3.63;;;3.60;99.90;;;;;;5041890;28;20207;-83
2021/01/13 05:16:10;;;;;;;4.88;3.17;;;3.40;99.90;;;;;;5045844;28;20514;-83
2021/01/13 05:18:53;;;;;;;8.15;3.80;;;3.40;99.90;;;;;;5045523;28;20222;-84
2021/01/13 05:21:21;;;;;;;7.25;2.88;;;3.30;99.90;;;;;;5044451;28;20231;-84
2021/01/13 05:23:51;;;;;;;8.57;3.85;;;3.40;99.90;;;;;;5046503;28;20207;-84
2021/01/13 05:26:19;;;;;;;7.85;3.60;;;3.70;99.90;;;;;;5046378;28;20199;-84
2021/01/13 05:29:28;;;;;;;8.25;3.20;;;3.60;99.90;;;;;;5050373;28;20250;-84
2021/01/13 05:31:55;;;;;;;10.10;3.83;;;3.60;99.90;;;;;;5053427;28;20241;-83
2021/01/13 05:34:22;;;;;;;8.40;3.63;;;3.40;99.90;;;;;;5053973;28;20211;-82
2021/01/13 05:37:16;;;;;;;9.77;3.80;;;3.50;99.90;;;;;;5052628;28;20204;-82
2021/01/13 05:39:44;;;;;;;12.80;4.13;;;3.50;99.90;;;;;;5046092;28;20210;-81
2021/01/13 05:42:14;;;;;;;8.55;3.80;;;3.80;99.90;;;;;;5044783;28;20254;-83
2021/01/13 05:44:42;;;;;;;7.85;4.22;;;3.60;99.90;;;;;;5041481;28;20262;-83
2021/01/13 05:47:37;;;;;;;12.23;3.75;;;3.80;99.90;;;;;;5041458;28;20246;-83
2021/01/13 05:50:05;;;;;;;8.07;4.32;;;3.70;99.90;;;;;;5040697;28;20653;-83
2021/01/13 05:52:35;;;;;;;8.55;3.75;;;3.60;99.90;;;;;;5040749;28;20226;-82
2021/01/13 05:55:04;;;;;;;5.18;3.08;;;3.60;99.90;;;;;;5043417;28;20211;-83
2021/01/13 05:57:31;;;;;;;7.32;3.97;;;3.50;99.90;;;;;;5048009;28;20200;-83
2021/01/13 06:00:00;;;;;;;9.02;3.47;;;3.60;99.90;;;;;;5042902;28;20211;-81
2021/01/13 06:02:33;;;;;;;7.22;3.75;;;3.60;99.90;;;;;;5039702;28;20227;-82
2021/01/13 06:05:04;;;;;;;7.20;3.40;;;3.40;99.90;;;;;;5040256;28;20210;-81
2021/01/13 06:07:31;;;;;;;7.45;4.32;;;3.50;99.90;;;;;;5039525;28;20222;-83
2021/01/13 06:09:59;;;;;;;7.68;3.83;;;3.60;99.90;;;;;;5040360;28;20203;-83
2021/01/13 06:12:27;;;;;;;8.02;3.70;;;3.80;99.90;;;;;;5044871;28;20239;-83
2021/01/13 06:14:55;;;;;;;6.45;3.78;;;3.60;99.90;;;;;;5044220;28;20211;-83
2021/01/13 06:17:23;;;;;;;13.82;4.10;;;3.50;99.90;;;;;;5040559;28;20195;-83
2021/01/13 06:19:51;;;;;;;8.27;3.85;;;3.40;99.90;;;;;;5048318;28;20234;-83
2021/01/13 06:22:19;;;;;;;12.75;4.18;;;3.40;99.90;;;;;;5047815;28;20647;-83
2021/01/13 06:24:47;;;;;;;10.98;4.15;;;3.70;99.90;;;;;;5045423;28;20797;-83
2021/01/13 06:27:19;;;;;;;6.88;4.32;;;3.50;99.90;;;;;;5049847;28;20310;-81
2021/01/13 06:29:50;;;;;;;8.38;4.10;;;3.60;99.90;;;;;;5052042;28;20204;-81
2021/01/13 06:32:30;;;;;;;8.85;4.35;;;3.40;99.90;;;;;;5049523;28;20293;-84
2021/01/13 06:35:03;;;;;;;10.10;3.80;;;3.20;99.90;;;;;;5047447;28;20203;-83
2021/01/13 06:37:48;;;;;;;9.13;4.03;;;3.20;99.90;;;;;;5048098;28;20203;-83
2021/01/13 06:40:16;;;;;;;13.13;4.28;;;3.30;99.90;;;;;;5048017;28;20230;-83
2021/01/13 06:42:43;;;;;;;11.50;4.78;;;3.00;99.90;;;;;;5048153;28;20227;-83
2021/01/13 06:45:12;;;;;;;13.60;4.25;;;2.90;99.90;;;;;;5046885;28;20946;-83
2021/01/13 06:47:54;;;;;;;8.10;4.07;;;3.10;99.90;;;;;;5047272;28;20792;-84
2021/01/13 06:50:35;;;;;;;14.23;3.80;;;3.20;99.90;;;;;;5046815;28;20203;-84
2021/01/13 06:53:06;;;;;;;7.13;4.20;;;3.10;99.90;;;;;;5046326;28;20303;-84
2021/01/13 06:55:34;;;;;;;9.65;3.97;;;3.10;99.90;;;;;;5039723;28;20207;-83
2021/01/13 06:58:10;;;;;;;12.80;5.32;;;3.10;99.90;;;;;;5039287;28;20211;-82
2021/01/13 07:00:37;;;;;;;8.73;4.60;;;3.10;99.90;;;;;;5044418;28;20253;-83
2021/01/13 07:03:21;;;;;;;10.55;4.32;;;3.10;99.90;;;;;;5046831;28;20298;-83
2021/01/13 07:05:48;;;;;;;8.30;4.18;;;3.20;99.90;;;;;;5047903;28;20206;-83
2021/01/13 07:08:14;;;;;;;8.32;4.63;;;3.10;99.90;;;;;;5047785;28;20227;-83
2021/01/13 07:10:41;;;;;;;11.68;4.88;;;2.90;99.90;;;;;;5049563;28;20212;-82
2021/01/13 07:13:09;;;;;;;15.98;4.72;;;3.20;99.90;;;;;;5047582;28;20228;-83
2021/01/13 07:15:38;;;;;;;10.88;4.80;;;3.20;99.90;;;;;;5044286;28;20206;-84
2021/01/13 07:18:06;;;;;;;8.30;4.32;;;3.10;99.90;;;;;;5042085;28;20203;-83
2021/01/13 07:20:39;;;;;;;6.18;3.80;;;3.10;99.90;;;;;;5039717;28;20206;-83
2021/01/13 07:23:07;;;;;;;11.27;5.07;;;2.90;99.90;;;;;;5037029;28;20269;-82
2021/01/13 07:25:36;;;;;;;10.73;4.97;;;2.90;99.90;;;;;;5035137;28;20207;-82
2021/01/13 07:28:04;;;;;;;12.60;5.25;;;2.80;99.90;;;;;;5036811;28;20219;-82
2021/01/13 07:30:32;;;;;;;8.07;4.78;;;2.80;99.90;;;;;;5040178;28;20245;-82
2021/01/13 07:33:00;;;;;;;12.57;5.55;;;3.10;99.90;;;;;;5039815;28;20254;-82
2021/01/13 07:35:31;;;;;;;10.23;5.10;;;3.10;99.90;;;;;;5040902;28;20227;-85
2021/01/13 07:38:00;;;;;;;14.50;5.60;;;3.10;99.90;;;;;;5041689;28;20661;-84
2021/01/13 07:40:35;;;;;;;9.40;6.10;;;3.10;99.90;;;;;;5043455;28;20207;-83
2021/01/13 07:43:07;;;;;;;12.93;4.60;;;3.10;99.90;;;;;;5043766;28;20230;-83
2021/01/13 07:45:42;;;;;;;7.20;4.38;;;2.80;99.90;;;;;;5025034;28;20200;-84
2021/01/13 07:48:42;;;;;;;8.50;5.70;;;2.90;99.90;;;;;;5046282;28;20219;-84
2021/01/13 07:51:10;;;;;;;17.65;5.53;;;2.70;99.90;;;;;;5049810;28;20610;-83
2021/01/13 07:53:39;;;;;;;8.75;5.70;;;2.60;99.90;;;;;;5046283;28;20219;-83
2021/01/13 07:56:10;;;;;;;9.35;5.05;;;2.80;99.90;;;;;;5045623;28;20215;-83
2021/01/13 07:58:37;;;;;;;11.18;5.75;;;2.90;99.90;;;;;;5046665;28;20214;-83
2021/01/13 08:01:44;;;;;;;12.25;5.55;;;3.00;99.90;;;;;;5044490;28;20204;-82
2021/01/13 08:05:23;;;;;;;12.32;6.20;;;2.90;99.90;;;;;;5042712;28;20199;-85
2021/01/13 08:08:06;;;;;;;15.77;7.00;;;2.70;99.90;;;;;;5042574;28;20222;-84
2021/01/13 08:10:36;;;;;;;11.85;6.70;;;3.00;99.90;;;;;;5045032;28;20207;-83
2021/01/13 08:13:45;;;;;;;10.52;5.85;;;2.90;99.90;;;;;;5045849;28;20321;-82
2021/01/13 08:16:45;;;;;;;15.95;6.28;;;2.80;99.90;;;;;;5049334;28;20505;-84
2021/01/13 08:19:46;;;;;;;13.38;6.75;;;2.90;99.90;;;;;;5047013;28;20275;-83
2021/01/13 08:22:15;;;;;;;9.30;5.68;;;3.10;99.90;;;;;;5049831;28;20227;-85
2021/01/13 08:24:50;;;;;;;10.85;6.38;;;3.20;99.90;;;;;;5047104;28;20215;-83
2021/01/13 08:27:18;;;;;;;11.40;6.55;;;3.00;99.90;;;;;;5050908;28;20229;-82
2021/01/13 08:29:55;;;;;;;11.25;5.60;;;3.10;99.90;;;;;;5054737;28;20255;-85
2021/01/13 08:32:31;;;;;;;10.65;5.88;;;3.30;99.90;;;;;;5053484;28;20238;-82
2021/01/13 08:35:05;;;;;;;9.65;5.80;;;3.40;99.90;;;;;;5052954;28;20179;-81
2021/01/13 08:37:33;;;;;;;13.32;5.80;;;3.30;99.90;;;;;;5053319;28;20667;-80
2021/01/13 08:40:15;;;;;;;11.05;6.50;;;3.70;99.90;;;;;;5051215;28;20215;-81
2021/01/13 08:42:43;;;;;;;10.32;5.53;;;3.50;99.90;;;;;;5034035;28;20238;-80
2021/01/13 08:45:34;;;;;;;10.40;6.00;;;3.60;99.90;;;;;;5045958;28;20226;-81
2021/01/13 08:48:09;;;;;;;12.55;5.75;;;3.50;99.90;;;;;;5053182;28;20209;-81
2021/01/13 08:50:37;;;;;;;10.25;4.30;;;3.60;99.90;;;;;;5051273;28;20203;-82
2021/01/13 08:53:05;;;;;;;9.25;4.65;;;3.70;99.90;;;;;;5048072;28;20227;-80
2021/01/13 08:55:33;;;;;;;9.18;4.85;;;3.70;99.90;;;;;;5052175;28;20209;-83
2021/01/13 08:58:07;;;;;;;8.55;4.40;;;3.90;99.90;;;;;;5053889;28;20187;-81
2021/01/13 09:00:36;;;;;;;10.48;4.75;;;3.70;99.90;;;;;;5054140;28;20201;-81
2021/01/13 09:03:10;;;;;;;6.47;4.10;;;3.80;99.90;;;;;;5049587;28;20237;-80
2021/01/13 09:05:39;;;;;;;12.77;5.28;;;4.00;99.90;;;;;;5048689;28;20209;-80
2021/01/13 09:08:08;;;;;;;10.68;4.88;;;3.70;99.90;;;;;;5044331;28;20234;-83
2021/01/13 09:10:54;;;;;;;10.93;5.82;;;3.90;99.90;;;;;;5031271;28;20211;-80
2021/01/13 09:13:34;;;;;;;9.70;4.20;;;4.20;99.90;;;;;;5028119;28;20230;-86
2021/01/13 09:16:35;;;;;;;10.55;5.20;;;4.20;99.90;;;;;;5055764;28;20251;-86
2021/01/13 09:19:08;;;;;;;7.95;4.82;;;4.30;99.90;;;;;;5032441;28;20291;-86
2021/01/13 09:21:37;;;;;;;9.48;5.20;;;4.30;99.90;;;;;;5033054;28;20219;-87
2021/01/13 09:24:05;;;;;;;10.95;4.40;;;4.60;99.90;;;;;;5049875;28;20275;-85
2021/01/13 09:26:34;;;;;;;12.07;4.22;;;4.40;99.90;;;;;;5052409;28;20191;-86
2021/01/13 09:29:07;;;;;;;6.88;4.10;;;4.40;99.90;;;;;;5051783;28;20222;-87
2021/01/13 09:34:02;;;;;;;9.63;4.45;;;4.60;99.90;;;;;;5050688;28;20226;-84
2021/01/13 09:36:31;;;;;;;8.55;4.30;;;4.60;99.90;;;;;;5057069;28;20240;-85
2021/01/13 09:39:16;;;;;;;7.45;3.58;;;4.70;99.90;;;;;;5058904;28;20198;-82
2021/01/13 09:41:56;;;;;;;8.38;3.92;;;4.70;99.90;;;;;;5057795;28;20280;-79
2021/01/13 09:44:30;;;;;;;7.43;3.78;;;4.60;99.90;;;;;;5057863;28;20210;-83
2021/01/13 09:46:57;;;;;;;11.73;5.40;;;4.70;99.90;;;;;;5057642;28;20194;-83
2021/01/13 09:49:24;;;;;;;6.07;3.20;;;4.70;99.90;;;;;;5041102;28;20210;-84
2021/01/13 09:51:51;;;;;;;8.88;3.70;;;4.90;99.90;;;;;;5047430;28;20203;-82
2021/01/13 09:54:23;;;;;;;6.25;3.10;;;4.60;99.90;;;;;;5062236;28;20213;-82
2021/01/13 09:56:56;;;;;;;8.90;3.28;;;5.00;99.90;;;;;;5054800;28;20266;-83
2021/01/13 09:59:25;;;;;;;9.80;4.30;;;5.20;99.90;;;;;;5054298;28;20228;-81
2021/01/13 10:01:56;;;;;;;6.15;3.13;;;5.10;99.90;;;;;;5055910;28;20213;-80
2021/01/13 10:04:23;;;;;;;6.32;3.38;;;5.10;99.90;;;;;;5036386;28;20294;-80
2021/01/13 10:06:56;;;;;;;9.60;3.20;;;5.10;99.90;;;;;;5045184;28;20199;-78
2021/01/13 10:09:23;;;;;;;6.00;2.90;;;5.10;99.90;;;;;;5052691;28;20195;-78
2021/01/13 10:11:55;;;;;;;8.98;3.35;;;5.10;99.90;;;;;;5052653;28;20232;-78
2021/01/13 10:14:22;;;;;;;5.85;2.78;;;5.20;99.90;;;;;;5053521;28;20217;-81
2021/01/13 10:16:49;;;;;;;4.63;2.42;;;5.20;99.90;;;;;;5054492;28;20203;-81
2021/01/13 10:19:17;;;;;;;9.68;3.88;;;5.20;99.90;;;;;;5053714;28;20707;-81
2021/01/13 10:21:47;;;;;;;8.45;3.20;;;5.40;99.90;;;;;;5061918;28;20218;-80
2021/01/13 10:24:15;;;;;;;8.57;3.22;;;5.40;99.90;;;;;;5070308;28;20276;-80
2021/01/13 10:26:44;;;;;;;11.48;3.35;;;5.30;99.90;;;;;;5057762;28;20233;-80
2021/01/13 10:29:13;;;;;;;8.23;3.38;;;5.30;99.90;;;;;;5062480;28;20226;-80
2021/01/13 10:31:40;;;;;;;7.80;3.80;;;5.50;99.90;;;;;;5064594;28;20676;-80
2021/01/13 10:34:11;;;;;;;9.02;3.13;;;5.30;99.90;;;;;;5063638;28;20207;-80
2021/01/13 10:36:44;;;;;;;5.28;2.50;;;5.30;99.90;;;;;;5059948;28;20217;-79
2021/01/13 10:39:17;;;;;;;11.38;3.25;;;5.30;99.90;;;;;;5054223;28;20199;-80
2021/01/13 10:41:45;;;;;;;5.22;2.90;;;5.30;99.90;;;;;;5046464;28;20293;-81
2021/01/13 10:44:20;;;;;;;7.68;2.75;;;5.40;99.90;;;;;;5052645;28;20209;-80
2021/01/13 10:46:53;;;;;;;11.43;2.78;;;5.40;99.90;;;;;;5056147;28;20194;-80
2021/01/13 10:49:28;;;;;;;6.22;3.00;;;5.30;99.90;;;;;;5053766;28;20203;-80
2021/01/13 10:51:56;;;;;;;5.75;2.92;;;5.30;99.90;;;;;;5062624;28;20298;-81
2021/01/13 10:54:26;;;;;;;7.60;3.65;;;5.20;99.90;;;;;;5059512;28;20264;-80
2021/01/13 10:56:55;;;;;;;5.28;2.33;;;5.30;99.90;;;;;;5054819;28;20588;-80
2021/01/13 10:59:22;;;;;;;6.18;2.58;;;5.20;99.90;;;;;;5054295;28;20260;-80
2021/01/13 11:01:54;;;;;;;5.93;2.60;;;5.40;99.90;;;;;;5055241;28;20737;-82
2021/01/13 11:04:23;;;;;;;4.85;2.28;;;5.30;99.90;;;;;;5054268;28;20217;-80
2021/01/13 11:06:55;;;;;;;4.93;2.03;;;5.40;99.90;;;;;;5053993;28;20575;-80
2021/01/13 11:09:23;;;;;;;5.07;3.25;;;5.50;99.90;;;;;;5054452;28;20261;-80
2021/01/13 11:11:49;;;;;;;5.63;3.40;;;5.60;99.90;;;;;;5054437;28;20206;-79
2021/01/13 11:14:27;;;;;;;8.35;4.80;;;5.50;99.90;;;;;;5052836;28;20202;-80
2021/01/13 11:17:03;;;;;;;5.45;2.17;;;5.40;99.90;;;;;;5051547;28;20206;-80
2021/01/13 11:19:30;;;;;;;7.45;2.55;;;5.50;99.90;;;;;;5050942;28;20202;-85
2021/01/13 11:21:57;;;;;;;6.72;2.05;;;5.80;99.90;;;;;;5056661;28;20222;-82
2021/01/13 11:24:43;;;;;;;5.95;2.38;;;6.00;99.90;;;;;;5056943;28;20280;-84
2021/01/13 11:27:12;;;;;;;5.25;2.30;;;5.90;99.90;;;;;;5056230;28;20213;-83
2021/01/13 11:29:41;;;;;;;5.15;2.20;;;6.20;99.90;;;;;;5043355;28;20203;-83
2021/01/13 11:32:13;;;;;;;4.63;2.50;;;6.20;99.90;;;;;;5051750;28;20230;-78
2021/01/13 11:34:45;;;;;;;6.75;1.98;;;6.20;99.90;;;;;;5051621;28;20203;-76
2021/01/13 11:37:47;;;;;;;6.55;2.55;;;6.20;99.90;;;;;;5050890;28;20206;-77
2021/01/13 11:40:48;;;;;;;6.28;3.58;;;6.00;99.90;;;;;;5045255;28;20204;-78
2021/01/13 11:43:47;;;;;;;6.88;3.17;;;6.10;99.90;;;;;;5050556;28;20260;-77
2021/01/13 11:46:16;;;;;;;5.50;2.75;;;6.00;99.90;;;;;;5051252;28;20211;-78
2021/01/13 11:49:03;;;;;;;5.45;2.30;;;6.10;99.90;;;;;;5055553;28;20226;-85
2021/01/13 11:51:33;;;;;;;5.80;2.30;;;6.10;99.90;;;;;;5054325;28;20210;-78
2021/01/13 11:54:01;;;;;;;8.05;2.90;;;6.10;99.90;;;;;;5064360;28;20199;-86
2021/01/13 11:56:29;;;;;;;10.65;3.38;;;6.20;99.90;;;;;;5058342;28;20248;-87
2021/01/13 11:58:56;;;;;;;6.22;2.70;;;6.40;99.90;;;;;;5054897;28;20203;-87
2021/01/13 12:01:24;;;;;;;4.70;1.88;;;6.20;99.90;;;;;;5054325;28;20233;-86
2021/01/13 12:04:03;;;;;;;7.13;2.22;;;6.10;99.90;;;;;;5054654;28;20226;-86
2021/01/13 12:06:30;;;;;;;7.00;2.40;;;6.10;99.90;;;;;;5056794;28;20203;-85
2021/01/13 12:08:56;;;;;;;5.70;1.85;;;6.40;99.90;;;;;;5055348;28;20238;-85
2021/01/13 12:11:23;;;;;;;4.35;1.90;;;6.40;99.90;;;;;;5053775;28;20264;-85
2021/01/13 12:13:52;;;;;;;5.03;2.03;;;6.40;99.90;;;;;;5053677;28;20262;-82
2021/01/13 12:16:21;;;;;;;5.30;1.90;;;6.30;99.90;;;;;;5056368;28;20297;-86
2021/01/13 12:18:50;;;;;;;4.55;1.70;;;6.50;99.90;;;;;;5059744;28;20194;-86
2021/01/13 12:21:28;;;;;;;7.00;2.40;;;6.40;99.90;;;;;;5059942;28;20218;-85
2021/01/13 12:23:56;;;;;;;5.32;1.70;;;6.40;99.90;;;;;;5056102;28;20286;-79
2021/01/13 12:26:27;;;;;;;12.15;2.58;;;6.30;99.90;;;;;;5053952;28;20206;-82
2021/01/13 12:28:56;;;;;;;5.78;1.90;;;6.60;99.90;;;;;;5060452;28;20758;-84
2021/01/13 12:31:25;;;;;;;4.97;1.50;;;6.30;99.90;;;;;;5054956;28;20217;-83
2021/01/13 12:33:54;;;;;;;3.85;1.40;;;6.10;99.90;;;;;;5053479;28;20761;-83
2021/01/13 12:36:23;;;;;;;5.47;1.92;;;6.20;99.90;;;;;;5052644;28;20207;-85
2021/01/13 12:38:51;;;;;;;8.32;2.22;;;6.30;99.90;;;;;;5047786;28;20247;-77
2021/01/13 12:41:26;;;;;;;3.80;1.60;;;6.50;99.90;;;;;;5050773;28;20694;-76
2021/01/13 12:43:54;;;;;;;3.47;1.45;;;6.40;99.90;;;;;;5050792;28;20221;-76
2021/01/13 12:46:28;;;;;;;7.63;1.50;;;6.30;99.90;;;;;;5050025;28;20222;-77
2021/01/13 12:48:56;;;;;;;4.40;1.50;;;6.80;99.90;;;;;;5049841;28;20821;-77
2021/01/13 12:51:24;;;;;;;6.03;1.85;;;6.60;99.90;;;;;;5048704;28;20194;-82
2021/01/13 12:53:53;;;;;;;7.53;1.40;;;6.60;99.90;;;;;;5051756;28;20230;-81
2021/01/13 12:56:26;;;;;;;4.00;1.45;;;6.30;99.90;;;;;;5054301;28;20272;-81
2021/01/13 12:58:53;;;;;;;3.05;1.52;;;6.40;99.90;;;;;;5052777;28;20297;-80
2021/01/13 13:01:20;;;;;;;5.30;1.20;;;6.30;99.90;;;;;;5052440;28;20703;-76
2021/01/13 13:03:47;;;;;;;5.22;1.20;;;6.40;99.90;;;;;;5048958;28;20222;-77
2021/01/13 13:06:24;;;;;;;9.10;4.50;;;6.30;99.90;;;;;;5050500;28;20669;-78
2021/01/13 13:08:51;;;;;;;5.63;1.48;;;6.50;99.90;;;;;;5052875;28;20227;-81
2021/01/13 13:11:18;;;;;;;3.55;0.93;;;6.40;99.90;;;;;;5053296;28;20206;-81
2021/01/13 13:13:44;;;;;;;5.45;1.30;;;6.60;99.90;;;;;;5051516;28;20226;-81
2021/01/13 13:16:11;;;;;;;6.68;1.70;;;6.50;99.90;;;;;;5054570;28;20233;-83
2021/01/13 13:18:39;;;;;;;5.45;1.20;;;6.60;99.90;;;;;;5052290;28;20205;-83
2021/01/13 13:21:09;;;;;;;4.95;1.33;;;6.90;99.90;;;;;;5058358;28;20202;-82
2021/01/13 13:23:37;;;;;;;4.30;1.65;;;6.90;99.90;;;;;;5066445;28;20261;-82